createdAt,value
2023-02-20T00:03:37.839Z,10.87
2023-02-20T00:09:00.690Z,10.60
2023-02-20T00:14:22.469Z,10.47
2023-02-20T00:19:44.001Z,10.33
2023-02-20T00:25:05.259Z,10.13
2023-02-20T00:30:29.714Z,9.70
2023-02-20T00:36:06.240Z,9.00
2023-02-20T00:41:58.714Z,7.23
2023-02-20T00:47:38.607Z,6.37
2023-02-20T00:53:13.984Z,6.30
2023-02-20T00:58:43.017Z,5.67
2023-02-20T01:04:12.730Z,5.30
2023-02-20T01:09:38.055Z,5.10
2023-02-20T01:14:59.728Z,4.87
2023-02-20T01:20:23.255Z,4.70
2023-02-20T01:25:44.648Z,5.10
2023-02-20T01:31:20.353Z,4.40
2023-02-20T01:37:10.572Z,4.63
2023-02-20T01:42:39.772Z,4.87
2023-02-20T01:48:32.005Z,5.23
2023-02-20T01:54:00.501Z,4.57
2023-02-20T01:59:25.365Z,5.37
2023-02-20T02:05:08.192Z,4.20
2023-02-20T02:10:59.581Z,3.57
2023-02-20T02:16:23.912Z,3.27
2023-02-20T02:22:23.449Z,3.20
2023-02-20T02:28:04.218Z,4.53
2023-02-20T02:33:55.939Z,5.83
2023-02-20T02:39:49.728Z,6.30
2023-02-20T02:45:19.250Z,6.47
2023-02-20T02:50:46.865Z,7.67
2023-02-20T02:56:24.663Z,6.90
2023-02-20T03:02:14.199Z,7.73
2023-02-20T03:07:38.261Z,8.53
2023-02-20T03:13:17.249Z,8.63
2023-02-20T03:19:02.587Z,8.40
2023-02-20T03:24:26.271Z,8.73
2023-02-20T03:29:49.252Z,9.20
2023-02-20T03:35:30.411Z,9.20
2023-02-20T03:41:25.616Z,8.17
2023-02-20T03:46:50.652Z,7.03
2023-02-20T03:52:31.192Z,7.53
2023-02-20T03:58:31.722Z,6.57
2023-02-20T04:04:18.774Z,6.80
2023-02-20T04:09:45.588Z,6.60
2023-02-20T04:15:09.100Z,6.57
2023-02-20T04:20:31.866Z,6.50
2023-02-20T04:26:32.129Z,5.87
2023-02-20T04:32:10.433Z,6.87
2023-02-20T04:37:58.886Z,6.53
2023-02-20T04:43:35.649Z,6.73
2023-02-20T04:49:08.386Z,6.20
2023-02-20T04:54:32.180Z,6.33
2023-02-20T04:59:55.315Z,6.40
2023-02-20T05:05:49.855Z,5.93
2023-02-20T05:11:24.206Z,5.70
2023-02-20T05:16:50.015Z,5.93
2023-02-20T05:22:24.673Z,6.43
2023-02-20T05:27:52.119Z,5.80
2023-02-20T05:33:33.739Z,5.80
2023-02-20T05:39:01.855Z,5.73
2023-02-20T05:44:23.648Z,5.27
2023-02-20T05:49:46.090Z,5.13
2023-02-20T05:55:08.030Z,5.83
2023-02-20T06:00:29.167Z,6.97
2023-02-20T06:06:16.811Z,6.43
2023-02-20T06:12:05.748Z,6.67
2023-02-20T06:17:55.176Z,6.77
2023-02-20T06:23:34.132Z,7.23
2023-02-20T06:29:01.646Z,7.20
2023-02-20T06:34:25.800Z,5.77
2023-02-20T06:39:49.418Z,7.50
2023-02-20T06:45:14.294Z,7.93
2023-02-20T06:50:37.021Z,6.57
2023-02-20T06:56:23.704Z,7.40
2023-02-20T07:02:07.165Z,8.17
2023-02-20T07:07:33.547Z,7.43
2023-02-20T07:13:05.294Z,7.40
2023-02-20T07:18:41.296Z,7.93
2023-02-20T07:24:08.550Z,8.50
2023-02-20T07:29:30.186Z,8.93
2023-02-20T07:35:03.806Z,7.60
2023-02-20T07:40:28.956Z,8.23
2023-02-20T07:46:06.426Z,8.30
2023-02-20T07:51:48.786Z,8.23
2023-02-20T07:57:27.799Z,7.70
2023-02-20T08:03:21.585Z,8.13
2023-02-20T08:09:02.512Z,7.40
2023-02-20T08:14:31.949Z,6.47
2023-02-20T08:19:53.333Z,5.37
2023-02-20T08:25:16.092Z,5.53
2023-02-20T08:43:21.059Z,5.63
2023-02-20T08:48:54.325Z,5.03
2023-02-20T08:54:20.742Z,5.13
2023-02-20T08:59:42.449Z,5.40
2023-02-20T09:05:23.579Z,4.73
2023-02-20T09:11:04.584Z,5.23
2023-02-20T09:16:52.175Z,5.50
2023-02-20T09:22:52.115Z,4.07
2023-02-20T09:28:33.181Z,5.07
2023-02-20T09:34:02.687Z,4.50
2023-02-20T09:39:24.779Z,4.87
2023-02-20T09:45:08.032Z,2.63
2023-02-20T09:50:34.137Z,4.40
2023-02-20T09:56:26.604Z,4.23
2023-02-20T10:02:25.771Z,3.67
2023-02-20T10:07:54.202Z,3.50
2023-02-20T10:13:43.521Z,3.70
2023-02-20T10:19:32.305Z,3.07
2023-02-20T10:25:10.410Z,3.23
2023-02-20T10:30:33.855Z,2.80
2023-02-20T10:36:45.742Z,2.47
2023-02-20T10:42:29.246Z,3.73
2023-02-20T10:48:15.113Z,2.30
2023-02-20T10:53:57.442Z,3.17
2023-02-20T10:59:27.953Z,3.13
2023-02-20T11:05:23.774Z,2.73
2023-02-20T11:11:04.530Z,2.80
2023-02-20T11:17:01.372Z,2.40
2023-02-20T11:22:56.382Z,2.50
2023-02-20T11:28:29.547Z,2.80
2023-02-20T11:34:00.304Z,2.10
2023-02-20T11:39:22.939Z,2.00
2023-02-20T11:44:44.931Z,2.20
2023-02-20T11:50:19.050Z,1.93
2023-02-20T11:55:44.327Z,1.97
2023-02-20T12:02:04.818Z,1.90
2023-02-20T12:07:42.414Z,1.70
2023-02-20T12:13:27.566Z,1.90
2023-02-20T12:19:02.733Z,2.27
2023-02-20T12:24:59.241Z,1.77
2023-02-20T12:31:22.761Z,1.80
2023-02-20T12:37:35.442Z,1.50
2023-02-20T12:43:31.808Z,2.00
2023-02-20T12:49:31.889Z,1.53
2023-02-20T12:55:22.782Z,1.90
2023-02-20T13:01:15.018Z,2.00
2023-02-20T13:07:04.188Z,1.57
2023-02-20T13:12:47.795Z,2.37
2023-02-20T13:18:54.230Z,2.10
2023-02-20T13:24:20.444Z,2.00
2023-02-20T13:30:00.404Z,2.33
2023-02-20T13:35:40.870Z,2.43
2023-02-20T13:41:25.086Z,2.47
2023-02-20T13:47:10.549Z,2.23
2023-02-20T13:53:02.915Z,1.90
2023-02-20T13:58:50.553Z,1.90
2023-02-20T14:04:39.934Z,2.40
2023-02-20T14:10:33.145Z,1.97
2023-02-20T14:16:22.665Z,2.27
2023-02-20T14:22:01.500Z,2.00
2023-02-20T14:27:51.461Z,2.30
2023-02-20T14:33:28.968Z,1.80
2023-02-20T14:39:13.973Z,2.17
2023-02-20T14:44:35.534Z,2.40
2023-02-20T14:50:17.429Z,2.63
2023-02-20T14:55:39.824Z,2.43
2023-02-20T15:01:01.524Z,2.10
2023-02-20T15:06:53.694Z,2.40
2023-02-20T15:12:46.220Z,2.77
2023-02-20T15:18:40.234Z,2.90
2023-02-20T15:24:26.846Z,3.00
2023-02-20T15:30:06.534Z,3.70
2023-02-20T15:35:30.535Z,4.60
2023-02-20T15:41:24.205Z,4.80
2023-02-20T15:47:08.529Z,3.00
2023-02-20T15:52:53.261Z,3.10
2023-02-20T15:58:53.861Z,4.30
2023-02-20T16:04:38.588Z,3.00
2023-02-20T16:09:59.955Z,3.30
2023-02-20T16:15:22.139Z,3.03
2023-02-20T16:20:43.674Z,3.07
2023-02-20T16:26:29.384Z,2.67
2023-02-20T16:32:42.790Z,2.70
2023-02-20T16:38:25.300Z,2.90
2023-02-20T16:43:58.522Z,2.87
2023-02-20T16:49:20.674Z,2.90
2023-02-20T16:54:43.037Z,2.90
2023-02-20T17:00:06.285Z,2.60
2023-02-20T17:05:57.379Z,3.10
2023-02-20T17:11:19.448Z,2.90
2023-02-20T17:17:00.458Z,2.53
2023-02-20T17:22:55.587Z,2.67
2023-02-20T17:28:42.489Z,4.20
2023-02-20T17:34:11.297Z,5.23
2023-02-20T17:39:33.671Z,3.27
2023-02-20T17:44:55.418Z,3.30
2023-02-20T17:50:18.832Z,3.33
2023-02-20T17:55:40.251Z,2.80
2023-02-20T18:01:01.762Z,3.00
2023-02-20T18:06:46.052Z,3.00
2023-02-20T18:12:24.003Z,3.30
2023-02-20T18:18:02.671Z,4.00
2023-02-20T18:23:47.437Z,3.20
2023-02-20T18:29:10.155Z,3.03
2023-02-20T18:34:32.681Z,2.97
2023-02-20T18:39:54.474Z,3.20
2023-02-20T18:45:15.837Z,3.07
2023-02-20T18:50:37.365Z,2.93
2023-02-20T18:56:26.103Z,3.00
2023-02-20T19:02:12.206Z,3.40
2023-02-20T19:07:35.785Z,3.70
2023-02-20T19:13:11.053Z,3.20
2023-02-20T19:18:51.199Z,3.60
2023-02-20T19:24:13.206Z,3.53
2023-02-20T19:29:34.394Z,3.60
2023-02-20T19:34:55.903Z,3.57
2023-02-20T19:40:17.493Z,4.03
2023-02-20T19:45:39.024Z,3.77
2023-02-20T19:51:29.929Z,2.87
2023-02-20T19:57:14.788Z,3.43
2023-02-20T20:03:07.164Z,3.50
2023-02-20T20:09:01.902Z,2.77
2023-02-20T20:14:25.525Z,3.90
2023-02-20T20:19:58.407Z,4.40
2023-02-20T20:25:21.637Z,3.33
2023-02-20T20:30:42.793Z,3.00
2023-02-20T20:36:25.658Z,3.97
2023-02-20T20:42:08.660Z,4.27
2023-02-20T20:47:31.479Z,5.80
2023-02-20T20:52:55.732Z,3.10
2023-02-20T20:58:28.498Z,4.40
2023-02-20T21:04:04.720Z,3.50
2023-02-20T21:09:26.334Z,3.30
2023-02-20T21:14:48.440Z,4.23
2023-02-20T21:20:15.107Z,3.20
2023-02-20T21:25:37.849Z,4.07
2023-02-20T21:31:24.489Z,5.00
2023-02-20T21:37:08.498Z,3.10
2023-02-20T21:42:57.311Z,2.90
2023-02-20T21:48:29.514Z,3.80
2023-02-20T21:53:57.986Z,3.83
2023-02-20T21:59:20.382Z,3.80
2023-02-20T22:04:54.458Z,3.30
2023-02-20T22:10:37.322Z,3.43
2023-02-20T22:16:42.604Z,3.90
2023-02-20T22:22:44.920Z,4.07
2023-02-20T22:28:44.105Z,4.80
2023-02-20T22:34:26.366Z,5.27
2023-02-20T22:40:07.143Z,5.60
2023-02-20T22:45:51.555Z,4.93
2023-02-20T22:52:00.125Z,4.77
2023-02-20T22:57:58.355Z,5.63
2023-02-20T23:04:14.169Z,4.90
2023-02-20T23:10:12.782Z,5.07
2023-02-20T23:15:57.079Z,5.30
2023-02-20T23:21:44.795Z,5.30
2023-02-20T23:27:55.745Z,5.30
2023-02-20T23:33:52.372Z,4.07
2023-02-20T23:39:33.663Z,3.60
2023-02-20T23:45:13.534Z,3.40
2023-02-20T23:50:57.538Z,3.00
2023-02-20T23:57:07.582Z,3.23
